Time;durP1;ratioP1;P1;durP2;ratioP2;P2;SDS_P1;SDS_P2;PMS_P1;PMS_P2;Temp;Humidity;BMP_temperature;BMP_pressure;BME280_temperature;BME280_humidity;BME280_pressure;Samples;Min_cycle;Max_cycle;Signal;HPM_P1;HPM_P2
2021/11/13 00:01:32;;;;;;;20.65;10.65;;;;;;;7.02;50.38;100878.34;4983811;28;20034;-70
2021/11/13 00:03:59;;;;;;;21.20;10.10;;;;;;;7.25;50.42;100881.22;4986545;28;20037;-69
2021/11/13 00:06:25;;;;;;;21.70;12.00;;;;;;;7.03;50.78;100880.06;5001306;28;20044;-70
2021/11/13 00:08:51;;;;;;;24.98;11.63;;;;;;;7.40;49.68;100884.28;4983028;28;20045;-70
2021/11/13 00:11:16;;;;;;;18.17;11.82;;;;;;;7.35;49.75;100883.56;5001480;28;20033;-70
2021/11/13 00:13:42;;;;;;;26.30;12.60;;;;;;;7.36;49.82;100885.28;5000278;28;20069;-70
2021/11/13 00:16:09;;;;;;;19.25;10.70;;;;;;;7.30;49.96;100886.28;4983533;28;20498;-70
2021/11/13 00:18:35;;;;;;;20.73;11.23;;;;;;;7.33;49.65;100876.69;4982243;28;20053;-69
2021/11/13 00:21:05;;;;;;;19.50;10.23;;;;;;;7.36;49.97;100890.50;4983012;28;20410;-69
2021/11/13 00:23:32;;;;;;;22.20;10.93;;;;;;;7.25;50.46;100878.63;4999218;28;20408;-70
2021/11/13 00:25:58;;;;;;;19.85;11.68;;;;;;;7.02;50.74;100875.75;4985516;28;20030;-70
2021/11/13 00:28:26;;;;;;;22.15;11.63;;;;;;;7.19;50.67;100872.72;4983719;28;20069;-69
2021/11/13 00:30:52;;;;;;;22.17;11.77;;;;;;;7.24;50.42;100876.88;4985605;28;20041;-69
2021/11/13 00:33:18;;;;;;;21.95;11.90;;;;;;;7.13;50.81;100860.72;4986502;28;20042;-69
2021/11/13 00:35:44;;;;;;;23.80;11.52;;;;;;;6.66;52.20;100865.34;4968858;28;20053;-69
2021/11/13 00:38:09;;;;;;;21.67;11.48;;;;;;;6.91;51.71;100860.44;5000201;28;20053;-69
2021/11/13 00:40:35;;;;;;;22.27;12.25;;;;;;;6.70;52.68;100859.19;4985557;28;20120;-69
2021/11/13 00:43:02;;;;;;;24.77;11.57;;;;;;;6.93;52.02;100866.41;4960203;28;20128;-69
2021/11/13 00:45:27;;;;;;;19.40;11.43;;;;;;;6.81;52.60;100859.78;4985207;28;20038;-69
2021/11/13 00:47:55;;;;;;;19.90;12.10;;;;;;;6.79;52.74;100858.97;4982021;28;20060;-69
2021/11/13 00:50:20;;;;;;;27.80;11.68;;;;;;;6.61;53.32;100851.63;5002536;28;20531;-69
2021/11/13 00:52:46;;;;;;;24.83;12.35;;;;;;;6.70;53.19;100854.00;4983682;28;20132;-69
2021/11/13 00:55:19;;;;;;;26.95;12.15;;;;;;;6.72;52.95;100854.81;5001419;28;20218;-69
2021/11/13 00:57:44;;;;;;;27.23;12.95;;;;;;;6.74;53.12;100850.44;5001133;28;20039;-69
2021/11/13 01:00:12;;;;;;;26.48;12.48;;;;;;;6.57;53.95;100847.41;5001495;28;20959;-69
2021/11/13 01:02:39;;;;;;;25.25;12.43;;;;;;;6.66;53.34;100841.97;4974181;28;20096;-69
2021/11/13 01:05:05;;;;;;;22.88;12.35;;;;;;;6.59;53.61;100835.22;4969559;28;20029;-69
2021/11/13 01:07:31;;;;;;;24.15;13.40;;;;;;;6.63;53.84;100837.72;4997980;28;20045;-70
2021/11/13 01:09:57;;;;;;;21.70;12.23;;;;;;;6.22;55.23;100833.47;4987525;28;20853;-69
2021/11/13 01:12:23;;;;;;;22.13;12.40;;;;;;;6.37;54.85;100848.69;4978280;28;20061;-69
2021/11/13 01:14:48;;;;;;;23.85;12.20;;;;;;;6.47;54.15;100842.41;4987044;28;20045;-69
2021/11/13 01:17:16;;;;;;;20.73;12.15;;;;;;;6.61;54.39;100843.84;4999699;28;20088;-69
2021/11/13 01:19:45;;;;;;;24.33;11.75;;;;;;;6.67;54.29;100838.50;5000150;28;20136;-69
2021/11/13 01:22:11;;;;;;;24.80;12.70;;;;;;;6.63;54.20;100836.88;4986936;28;20101;-69
2021/11/13 01:24:36;;;;;;;26.50;13.50;;;;;;;6.62;54.43;100841.22;4986581;28;20488;-69
2021/11/13 01:27:02;;;;;;;23.83;12.23;;;;;;;6.69;54.30;100836.72;4998182;28;20052;-69
2021/11/13 01:29:28;;;;;;;29.67;13.57;;;;;;;6.52;54.94;100837.13;4987493;28;20128;-69
2021/11/13 01:31:53;;;;;;;25.48;13.75;;;;;;;6.64;54.49;100839.44;4984423;28;20038;-69
2021/11/13 01:34:19;;;;;;;24.02;12.25;;;;;;;6.35;55.34;100842.72;5000057;28;20038;-69
2021/11/13 01:36:45;;;;;;;30.60;12.43;;;;;;;6.55;54.80;100839.66;4982350;28;20033;-69
2021/11/13 01:39:10;;;;;;;26.30;13.60;;;;;;;6.29;55.52;100840.25;4985065;28;20487;-69
2021/11/13 01:41:36;;;;;;;22.90;12.88;;;;;;;6.57;55.13;100837.00;4975968;28;20042;-69
2021/11/13 01:44:05;;;;;;;28.27;12.93;;;;;;;6.67;54.54;100833.31;4983891;28;20129;-69
2021/11/13 01:46:31;;;;;;;23.30;13.23;;;;;;;6.50;55.42;100834.53;4996200;28;20495;-70
2021/11/13 01:48:57;;;;;;;33.17;14.32;;;;;;;6.59;55.13;100835.22;5000443;28;20045;-69
2021/11/13 01:51:25;;;;;;;28.45;13.60;;;;;;;6.43;55.71;100829.56;4983463;28;20042;-69
2021/11/13 01:53:53;;;;;;;27.98;12.48;;;;;;;6.56;55.06;100827.53;4996189;28;20091;-69
2021/11/13 01:56:20;;;;;;;26.60;14.15;;;;;;;6.48;55.56;100823.38;4998866;28;20046;-69
2021/11/13 01:58:53;;;;;;;24.70;12.50;;;;;;;6.71;55.18;100821.97;4998245;28;20060;-69
2021/11/13 02:01:21;;;;;;;25.65;12.93;;;;;;;6.73;55.26;100822.78;4979673;28;20121;-69
2021/11/13 02:03:48;;;;;;;24.60;12.90;;;;;;;6.68;55.42;100822.03;4982454;28;20692;-69
2021/11/13 02:06:15;;;;;;;24.02;12.98;;;;;;;6.52;55.40;100833.69;4984718;28;20387;-69
2021/11/13 02:08:42;;;;;;;31.08;14.93;;;;;;;6.79;55.06;100830.41;4982000;28;20112;-69
2021/11/13 02:11:12;;;;;;;28.38;14.40;;;;;;;6.86;55.07;100831.97;4997484;28;20044;-69
2021/11/13 02:13:38;;;;;;;29.58;13.65;;;;;;;6.81;55.33;100831.22;4957432;28;20054;-70
2021/11/13 02:16:04;;;;;;;27.55;13.95;;;;;;;6.81;55.51;100820.81;5001640;28;20642;-69
2021/11/13 02:18:29;;;;;;;22.35;12.93;;;;;;;6.95;55.12;100833.47;4984740;28;20079;-69
2021/11/13 02:20:55;;;;;;;25.55;13.00;;;;;;;6.98;54.83;100825.59;5002951;28;20044;-69
2021/11/13 02:23:26;;;;;;;28.63;13.50;;;;;;;6.82;55.28;100822.53;5001349;28;20089;-69
2021/11/13 02:25:52;;;;;;;25.60;14.30;;;;;;;7.08;54.97;100823.59;5001512;28;20109;-69
2021/11/13 02:28:23;;;;;;;30.67;14.55;;;;;;;6.97;54.84;100821.28;4981514;28;20080;-69
2021/11/13 02:30:50;;;;;;;29.05;14.95;;;;;;;6.89;55.32;100818.91;5000181;28;20108;-69
2021/11/13 02:33:17;;;;;;;30.52;14.20;;;;;;;6.90;55.32;100818.00;4992777;28;20064;-69
2021/11/13 02:35:44;;;;;;;27.75;15.68;;;;;;;6.80;55.33;100813.94;4979549;28;20084;-69
2021/11/13 02:38:25;;;;;;;24.50;13.40;;;;;;;6.85;55.60;100812.06;4984830;28;20045;-69
2021/11/13 02:40:56;;;;;;;28.15;14.00;;;;;;;7.01;54.76;100819.47;5002694;28;20030;-69
2021/11/13 02:43:24;;;;;;;30.30;15.80;;;;;;;6.89;55.62;100818.91;4985551;28;20049;-69
2021/11/13 02:45:52;;;;;;;25.63;14.20;;;;;;;6.99;54.97;100810.84;4989055;28;20044;-69
2021/11/13 02:48:18;;;;;;;33.30;15.20;;;;;;;6.97;55.13;100808.28;4987689;28;20671;-69
2021/11/13 02:50:43;;;;;;;31.77;14.85;;;;;;;7.14;54.43;100800.06;4970504;28;20049;-69
2021/11/13 02:53:28;;;;;;;29.17;15.43;;;;;;;6.97;55.20;100807.44;4970814;28;21178;-69
2021/11/13 02:55:55;;;;;;;26.33;14.10;;;;;;;6.97;55.34;100804.84;4978946;28;21101;-69
2021/11/13 02:58:25;;;;;;;32.28;14.18;;;;;;;6.59;55.96;100809.25;4999885;28;20038;-69
2021/11/13 03:00:54;;;;;;;25.50;13.80;;;;;;;6.71;55.99;100811.56;4971624;28;20506;-69
2021/11/13 03:03:20;;;;;;;27.10;13.85;;;;;;;7.05;55.28;100808.09;5001737;28;20061;-69
2021/11/13 03:05:52;;;;;;;28.20;13.63;;;;;;;7.03;55.00;100808.13;4988019;28;20041;-69
2021/11/13 03:08:32;;;;;;;28.83;13.70;;;;;;;7.18;54.62;100812.09;4997509;28;20208;-69
2021/11/13 03:11:01;;;;;;;31.35;13.38;;;;;;;6.83;55.75;100819.03;4999671;28;20070;-69
2021/11/13 03:13:29;;;;;;;27.70;14.43;;;;;;;7.04;54.91;100804.66;4999470;28;20049;-69
2021/11/13 03:15:58;;;;;;;27.63;14.43;;;;;;;7.12;54.93;100807.03;4969352;28;20065;-69
2021/11/13 03:18:24;;;;;;;25.08;13.35;;;;;;;6.82;55.67;100812.16;4984678;28;20034;-70
2021/11/13 03:20:50;;;;;;;24.33;14.63;;;;;;;6.84;55.53;100812.97;4987574;28;20116;-69
2021/11/13 03:23:18;;;;;;;27.90;15.00;;;;;;;7.02;55.45;100813.38;5002234;28;20439;-70
2021/11/13 03:25:53;;;;;;;25.13;14.85;;;;;;;6.95;55.48;100811.81;4987717;28;20052;-69
2021/11/13 03:28:21;;;;;;;30.08;15.88;;;;;;;6.46;56.77;100806.09;4984146;28;20638;-70
2021/11/13 03:30:47;;;;;;;30.30;15.20;;;;;;;6.85;55.87;100806.03;4993946;28;20034;-69
2021/11/13 03:33:13;;;;;;;33.78;14.35;;;;;;;6.82;55.81;100809.56;4997705;28;20038;-70
2021/11/13 03:35:38;;;;;;;26.95;14.93;;;;;;;6.71;56.24;100808.97;4969601;28;20730;-70
2021/11/13 03:38:07;;;;;;;28.45;14.90;;;;;;;6.81;55.91;100807.00;4980754;28;20045;-70
2021/11/13 03:40:35;;;;;;;28.63;14.75;;;;;;;6.47;56.71;100806.06;5001468;28;20034;-70
2021/11/13 03:43:00;;;;;;;25.83;15.45;;;;;;;6.88;55.99;100817.16;4974617;28;20092;-69
2021/11/13 03:45:26;;;;;;;32.00;15.60;;;;;;;6.91;55.66;100811.06;5001380;28;20124;-70
2021/11/13 03:47:53;;;;;;;29.63;15.52;;;;;;;6.91;55.62;100811.91;4999146;28;20069;-69
2021/11/13 03:50:18;;;;;;;36.80;16.05;;;;;;;6.76;56.09;100812.31;4999309;28;20044;-70
2021/11/13 03:52:44;;;;;;;31.45;14.70;;;;;;;6.66;56.29;100816.88;4984131;28;20049;-69
2021/11/13 03:55:09;;;;;;;33.85;16.05;;;;;;;6.57;56.68;100817.06;4968999;28;20131;-70
2021/11/13 03:57:35;;;;;;;29.42;16.08;;;;;;;6.94;55.64;100820.53;4983351;28;20065;-69
2021/11/13 04:00:00;;;;;;;31.50;16.20;;;;;;;6.94;55.90;100815.34;4983714;28;20396;-69
2021/11/13 04:02:26;;;;;;;28.00;14.68;;;;;;;7.10;54.99;100816.63;5001888;28;20127;-70
2021/11/13 04:04:51;;;;;;;34.58;16.13;;;;;;;6.55;56.95;100812.81;5001225;28;20121;-69
2021/11/13 04:07:17;;;;;;;28.70;14.98;;;;;;;7.01;55.83;100816.88;4985344;28;20040;-69
2021/11/13 04:09:43;;;;;;;37.50;16.65;;;;;;;6.96;55.67;100818.75;4986110;28;20423;-69
2021/11/13 04:12:10;;;;;;;30.52;16.92;;;;;;;7.03;55.70;100817.69;4998940;28;20058;-69
2021/11/13 04:14:36;;;;;;;29.85;15.02;;;;;;;7.11;55.64;100818.34;4998386;28;20120;-70
2021/11/13 04:17:03;;;;;;;32.67;16.55;;;;;;;6.73;56.32;100817.59;4997755;28;20046;-69
2021/11/13 04:19:29;;;;;;;31.77;16.65;;;;;;;6.86;56.56;100818.09;4987911;28;20804;-69
2021/11/13 04:21:55;;;;;;;33.97;15.55;;;;;;;6.82;56.34;100817.34;4998858;28;20033;-69
2021/11/13 04:24:22;;;;;;;36.15;17.90;;;;;;;6.95;56.34;100823.06;4999600;28;20129;-69
2021/11/13 04:26:47;;;;;;;29.25;16.33;;;;;;;6.82;56.65;100826.88;4999761;28;20030;-69
2021/11/13 04:29:13;;;;;;;32.38;16.77;;;;;;;6.91;56.34;100832.72;4999836;28;20543;-70
2021/11/13 04:31:39;;;;;;;33.05;16.08;;;;;;;7.01;55.84;100837.66;4999760;28;20042;-70
2021/11/13 04:34:07;;;;;;;33.30;16.98;;;;;;;6.81;56.41;100826.03;5000322;28;20034;-70
2021/11/13 04:36:37;;;;;;;30.02;15.95;;;;;;;6.82;56.89;100835.53;4982326;28;20141;-69
2021/11/13 04:39:08;;;;;;;32.53;17.20;;;;;;;7.11;55.77;100836.53;5001917;28;20061;-69
2021/11/13 04:41:34;;;;;;;37.92;16.75;;;;;;;7.11;56.06;100844.34;4983854;28;20135;-70
2021/11/13 04:44:00;;;;;;;27.10;16.52;;;;;;;7.02;55.74;100835.03;4965938;28;20034;-69
2021/11/13 04:46:26;;;;;;;32.97;16.90;;;;;;;7.19;55.74;100844.13;5000462;28;20072;-70
2021/11/13 04:48:52;;;;;;;32.92;17.02;;;;;;;7.20;55.50;100843.22;4996300;28;20046;-70
2021/11/13 04:51:17;;;;;;;32.05;16.30;;;;;;;7.16;55.37;100842.47;4987104;28;20030;-70
2021/11/13 04:53:43;;;;;;;33.40;17.10;;;;;;;6.99;56.16;100839.44;5000182;28;20034;-69
2021/11/13 04:56:09;;;;;;;34.58;15.70;;;;;;;7.04;56.04;100847.97;4968943;28;20038;-70
2021/11/13 04:58:35;;;;;;;31.38;17.20;;;;;;;7.08;55.90;100841.81;4998171;28;20574;-70
2021/11/13 05:01:01;;;;;;;36.25;17.58;;;;;;;7.19;55.84;100842.38;4998321;28;20101;-70
2021/11/13 05:03:27;;;;;;;33.22;16.73;;;;;;;7.11;56.05;100841.75;4997160;28;20053;-70
2021/11/13 05:05:52;;;;;;;33.30;18.35;;;;;;;6.89;56.37;100847.47;4983192;28;20034;-70
2021/11/13 05:08:18;;;;;;;30.13;16.20;;;;;;;7.17;56.06;100841.56;4979956;28;20126;-70
2021/11/13 05:10:51;;;;;;;34.90;17.38;;;;;;;7.16;55.79;100847.66;5000615;28;20034;-69
2021/11/13 05:13:18;;;;;;;33.22;17.05;;;;;;;7.14;55.74;100848.59;4992988;28;20096;-70
2021/11/13 05:15:44;;;;;;;36.38;16.50;;;;;;;6.95;56.34;100843.00;4984584;28;20037;-69
2021/11/13 05:18:09;;;;;;;35.78;17.33;;;;;;;7.14;55.83;100844.25;4995945;28;20046;-70
2021/11/13 05:20:35;;;;;;;38.03;17.33;;;;;;;7.22;55.93;100852.72;4999176;28;20037;-70
2021/11/13 05:23:01;;;;;;;36.45;18.23;;;;;;;7.32;55.64;100845.50;4998683;28;20535;-70
2021/11/13 05:25:26;;;;;;;33.30;17.20;;;;;;;7.08;56.33;100849.59;4998976;28;20129;-69
2021/11/13 05:27:52;;;;;;;34.75;17.33;;;;;;;6.90;56.86;100848.31;4999594;28;20140;-70
2021/11/13 05:30:19;;;;;;;33.47;16.40;;;;;;;7.00;56.93;100849.81;4998208;28;20034;-70
2021/11/13 05:32:46;;;;;;;28.98;15.75;;;;;;;7.01;56.73;100842.88;4980940;28;20045;-70
2021/11/13 05:35:12;;;;;;;32.05;16.20;;;;;;;7.24;56.04;100860.44;4985048;28;20121;-70
2021/11/13 05:37:38;;;;;;;32.10;16.63;;;;;;;7.14;56.47;100861.59;4980845;28;20053;-70
2021/11/13 05:40:06;;;;;;;28.73;15.40;;;;;;;7.08;56.57;100860.84;5000166;28;20460;-70
2021/11/13 05:42:32;;;;;;;33.22;17.50;;;;;;;7.27;55.74;100863.84;4982859;28;20045;-70
2021/11/13 05:44:58;;;;;;;32.83;16.75;;;;;;;7.31;55.93;100852.47;4997378;28;20101;-70
2021/11/13 05:47:25;;;;;;;38.83;18.95;;;;;;;7.12;56.41;100861.63;4997162;28;20046;-69
2021/11/13 05:49:51;;;;;;;34.28;17.73;;;;;;;7.30;55.93;100866.34;4998000;28;20061;-69
2021/11/13 05:52:17;;;;;;;36.95;17.83;;;;;;;7.28;56.14;100862.94;5003991;28;20069;-70
2021/11/13 05:54:42;;;;;;;31.30;17.40;;;;;;;6.87;57.26;100875.25;5010488;28;20039;-69
2021/11/13 05:57:08;;;;;;;30.15;15.88;;;;;;;7.36;56.01;100880.09;5006949;28;20137;-69
2021/11/13 05:59:34;;;;;;;29.73;15.90;;;;;;;7.10;56.83;100879.84;4995216;28;20041;-69
2021/11/13 06:02:00;;;;;;;27.60;15.93;;;;;;;7.38;56.07;100865.28;4993926;28;20110;-69
2021/11/13 06:04:25;;;;;;;38.53;17.08;;;;;;;7.20;56.40;100872.69;5010697;28;20061;-69
2021/11/13 06:06:51;;;;;;;25.90;16.20;;;;;;;7.48;55.65;100870.19;4980832;28;20048;-69
2021/11/13 06:09:16;;;;;;;31.27;16.52;;;;;;;7.26;56.74;100885.50;4988725;28;20049;-69
2021/11/13 06:11:42;;;;;;;27.27;16.08;;;;;;;7.43;56.01;100877.28;5006506;28;20148;-70
2021/11/13 06:14:07;;;;;;;34.88;17.02;;;;;;;7.46;56.07;100884.13;4995010;28;20026;-70
2021/11/13 06:16:32;;;;;;;28.73;15.35;;;;;;;7.28;56.42;100885.47;5009935;28;20176;-70
2021/11/13 06:18:58;;;;;;;32.75;16.55;;;;;;;7.49;55.95;100894.47;5010842;28;20030;-70
2021/11/13 06:21:23;;;;;;;28.85;16.17;;;;;;;7.49;55.79;100903.13;5013183;28;20040;-69
2021/11/13 06:23:49;;;;;;;29.25;16.00;;;;;;;7.52;55.88;100904.78;4994668;28;20081;-70
2021/11/13 06:28:49;;;;;;;29.45;17.10;;;;;;;7.56;55.72;100903.84;5014550;28;20120;-68
2021/11/13 06:31:15;;;;;;;30.20;16.88;;;;;;;7.56;55.40;100903.84;5015735;28;20041;-67
2021/11/13 06:33:40;;;;;;;26.40;14.18;;;;;;;7.50;56.13;100915.22;5004136;28;20219;-66
2021/11/13 06:36:06;;;;;;;27.02;14.27;;;;;;;7.64;55.67;100911.44;5016677;28;20481;-66
2021/11/13 06:38:32;;;;;;;27.95;15.07;;;;;;;7.63;56.06;100915.78;5012448;28;20104;-66
2021/11/13 06:40:58;;;;;;;26.05;15.13;;;;;;;7.54;56.09;100918.59;5012988;28;20475;-66
2021/11/13 06:43:23;;;;;;;30.63;16.20;;;;;;;7.58;55.57;100928.06;5011620;28;20042;-66
2021/11/13 06:45:49;;;;;;;26.27;16.05;;;;;;;7.53;55.93;100930.78;4994398;28;20550;-65
2021/11/13 06:48:14;;;;;;;22.67;13.65;;;;;;;7.46;56.67;100933.56;5011397;28;20092;-65
2021/11/13 06:50:40;;;;;;;33.85;15.02;;;;;;;7.55;56.11;100937.69;4996204;28;20305;-66
2021/11/13 06:53:06;;;;;;;26.50;14.57;;;;;;;7.46;56.28;100941.34;5011935;28;20054;-66
2021/11/13 06:55:31;;;;;;;29.95;15.77;;;;;;;7.50;56.50;100948.19;5015529;28;20049;-67
2021/11/13 06:57:57;;;;;;;30.35;16.27;;;;;;;7.22;57.29;100941.09;5012688;28;20045;-68
2021/11/13 07:00:24;;;;;;;24.42;14.85;;;;;;;7.48;56.35;100947.38;5012882;28;20038;-69
2021/11/13 07:02:49;;;;;;;27.73;15.73;;;;;;;7.36;56.88;100952.91;5012905;28;20080;-67
2021/11/13 07:05:17;;;;;;;22.75;13.90;;;;;;;7.54;56.20;100952.41;5001556;28;20041;-67
2021/11/13 07:07:42;;;;;;;26.65;15.30;;;;;;;7.54;56.41;100952.41;5014088;28;20042;-70
2021/11/13 07:10:14;;;;;;;26.15;14.45;;;;;;;7.52;56.41;100959.41;5001345;28;20429;-67
2021/11/13 07:12:40;;;;;;;;;;;;;;;7.51;56.28;100962.88;5015739;28;20068;-67
2021/11/13 07:15:07;;;;;;;23.40;13.77;;;;;;;7.60;56.06;100962.72;5016359;28;20450;-67
2021/11/13 07:17:32;;;;;;;27.20;15.73;;;;;;;7.51;56.53;100965.47;5015035;28;20212;-66
2021/11/13 07:19:58;;;;;;;24.25;13.55;;;;;;;7.62;56.42;100967.84;5016098;28;20511;-67
2021/11/13 07:22:23;;;;;;;23.38;13.68;;;;;;;7.66;56.44;100967.72;5016783;28;20161;-67
2021/11/13 07:24:49;;;;;;;24.33;14.70;;;;;;;7.57;56.55;100967.13;5018365;28;20665;-67
2021/11/13 07:27:15;;;;;;;26.42;15.93;;;;;;;7.56;56.33;100976.69;5013787;28;20839;-67
2021/11/13 07:29:46;;;;;;;24.98;14.80;;;;;;;7.59;56.58;100979.19;4989417;28;20058;-66
2021/11/13 07:32:13;;;;;;;29.30;15.45;;;;;;;7.64;56.28;100986.88;5015986;28;20491;-67
2021/11/13 07:34:39;;;;;;;23.80;13.75;;;;;;;7.72;56.32;100982.34;4989816;28;20472;-66
2021/11/13 07:37:05;;;;;;;24.17;15.25;;;;;;;7.76;56.39;100988.28;5016171;28;20161;-68
2021/11/13 07:39:31;;;;;;;22.33;14.68;;;;;;;7.60;56.73;100988.72;5016635;28;20040;-68
2021/11/13 07:41:57;;;;;;;22.33;14.00;;;;;;;7.58;56.68;100992.22;5017697;28;20050;-67
2021/11/13 07:44:22;;;;;;;21.70;14.40;;;;;;;7.78;56.16;100989.09;5014412;28;20041;-66
2021/11/13 07:46:48;;;;;;;28.38;15.32;;;;;;;7.91;56.10;101000.91;5016009;28;20033;-65
2021/11/13 07:49:13;;;;;;;27.48;15.48;;;;;;;7.76;56.49;101003.91;5018048;28;20041;-65
2021/11/13 07:51:39;;;;;;;22.50;13.13;;;;;;;7.88;56.02;101008.81;5012549;28;20034;-68
2021/11/13 07:54:05;;;;;;;26.13;14.63;;;;;;;7.90;56.07;101012.22;5016328;28;20057;-66
2021/11/13 07:56:31;;;;;;;25.02;14.27;;;;;;;7.99;55.84;101009.38;5015669;28;20438;-65
2021/11/13 07:58:57;;;;;;;28.52;15.02;;;;;;;7.97;55.96;101012.91;5015058;28;20526;-66
2021/11/13 08:01:24;;;;;;;23.90;15.35;;;;;;;7.90;55.89;101012.22;5017136;28;20037;-65
2021/11/13 08:03:49;;;;;;;24.23;14.20;;;;;;;7.93;55.89;101007.75;5017761;28;20041;-68
2021/11/13 08:06:15;;;;;;;24.02;14.18;;;;;;;7.92;56.00;101010.44;5017370;28;20029;-66
2021/11/13 08:08:40;;;;;;;24.58;13.85;;;;;;;8.01;55.60;101015.38;5016787;28;20623;-66
2021/11/13 08:11:06;;;;;;;26.70;15.45;;;;;;;7.93;55.87;101018.19;5000301;28;20041;-67
2021/11/13 08:13:33;;;;;;;24.23;13.27;;;;;;;7.56;56.98;101009.63;5003955;28;20045;-66
2021/11/13 08:15:59;;;;;;;23.10;14.20;;;;;;;7.92;55.90;101013.88;4999877;28;20060;-65
2021/11/13 08:18:25;;;;;;;27.17;14.48;;;;;;;8.07;55.69;101019.56;5015606;28;20046;-67
2021/11/13 08:20:51;;;;;;;22.73;13.60;;;;;;;8.15;55.92;101026.25;5016199;28;20609;-66
2021/11/13 08:23:17;;;;;;;25.10;14.13;;;;;;;8.22;55.53;101026.09;5016770;28;20049;-66
2021/11/13 08:25:45;;;;;;;28.20;15.48;;;;;;;8.16;55.46;101027.13;5005577;28;20518;-66
2021/11/13 08:28:12;;;;;;;22.55;14.23;;;;;;;8.06;55.98;101029.13;5000090;28;20048;-66
2021/11/13 08:30:38;;;;;;;25.05;14.75;;;;;;;8.15;55.52;101026.25;5015793;28;20129;-66
2021/11/13 08:33:07;;;;;;;28.50;15.55;;;;;;;8.30;55.38;101030.22;5014034;28;20046;-66
2021/11/13 08:35:36;;;;;;;25.58;14.75;;;;;;;8.29;55.55;101030.25;5015009;28;20041;-67
2021/11/13 08:38:03;;;;;;;21.80;13.40;;;;;;;8.35;55.31;101024.88;4998724;28;20041;-67
2021/11/13 08:40:28;;;;;;;23.13;14.43;;;;;;;8.35;55.49;101030.91;5014649;28;20033;-66
2021/11/13 08:42:54;;;;;;;21.55;12.75;;;;;;;8.45;55.35;101034.13;5013985;28;20034;-66
2021/11/13 08:45:20;;;;;;;25.00;15.68;;;;;;;8.49;55.24;101033.13;4985676;28;20038;-67
2021/11/13 08:47:46;;;;;;;20.27;12.55;;;;;;;8.53;55.07;101041.72;5004527;28;20035;-67
2021/11/13 08:50:20;;;;;;;24.42;13.48;;;;;;;8.47;55.31;101055.78;5014442;28;20033;-67
2021/11/13 08:52:50;;;;;;;27.52;15.27;;;;;;;8.41;55.27;101055.09;5013249;28;20038;-67
2021/11/13 08:55:18;;;;;;;21.00;13.35;;;;;;;8.42;55.19;101062.00;4997955;28;20479;-68
2021/11/13 08:57:45;;;;;;;22.63;14.70;;;;;;;8.46;55.24;101048.00;5015219;28;20056;-67
2021/11/13 09:00:13;;;;;;;25.75;14.23;;;;;;;8.42;55.52;101052.44;5016867;28;20037;-67
2021/11/13 09:02:39;;;;;;;26.88;14.63;;;;;;;8.26;55.55;101059.81;5015534;28;20041;-66
2021/11/13 09:05:06;;;;;;;23.35;14.02;;;;;;;8.38;55.07;101058.63;5013227;28;20032;-67
2021/11/13 09:07:32;;;;;;;22.25;14.35;;;;;;;8.37;55.19;101062.13;4997382;28;20053;-66
2021/11/13 09:09:57;;;;;;;21.92;14.35;;;;;;;8.45;55.11;101068.00;5015391;28;20034;-68
2021/11/13 09:12:27;;;;;;;22.83;13.68;;;;;;;8.46;54.90;101074.91;5010366;28;20197;-68
2021/11/13 09:14:58;;;;;;;24.80;14.07;;;;;;;8.51;55.23;101080.81;5015470;28;20037;-66
2021/11/13 09:17:24;;;;;;;25.55;14.05;;;;;;;8.53;55.26;101083.41;5009665;28;20065;-67
2021/11/13 09:19:50;;;;;;;21.65;14.27;;;;;;;8.55;55.17;101085.06;5005959;28;20044;-66
2021/11/13 09:22:16;;;;;;;32.47;18.35;;;;;;;8.32;55.29;101087.47;5012911;28;20547;-67
2021/11/13 09:24:42;;;;;;;25.17;14.52;;;;;;;8.39;55.55;101094.22;5014329;28;20495;-67
2021/11/13 09:27:08;;;;;;;21.85;14.70;;;;;;;8.41;55.02;101087.22;5014470;28;20143;-67
2021/11/13 09:29:33;;;;;;;29.65;15.98;;;;;;;8.53;55.49;101097.28;5014070;28;20047;-67
2021/11/13 09:31:59;;;;;;;22.58;13.43;;;;;;;8.36;55.89;101095.16;5012752;28;20099;-66
2021/11/13 09:34:24;;;;;;;21.90;14.35;;;;;;;8.53;55.12;101097.28;4991593;28;20128;-66
2021/11/13 09:36:50;;;;;;;23.15;14.32;;;;;;;8.57;55.10;101114.53;5011209;28;20747;-68
2021/11/13 09:39:17;;;;;;;26.00;15.73;;;;;;;8.73;55.06;101111.53;5009812;28;20564;-66
2021/11/13 09:41:43;;;;;;;23.65;14.95;;;;;;;8.70;55.02;101107.25;5009773;28;20026;-68
2021/11/13 09:44:09;;;;;;;25.90;14.63;;;;;;;8.79;55.19;101110.53;5012191;28;20111;-67
2021/11/13 09:46:36;;;;;;;23.80;13.73;;;;;;;8.66;55.05;101117.78;5008712;28;20061;-68
2021/11/13 09:49:03;;;;;;;25.00;15.32;;;;;;;8.68;54.97;101116.00;5011360;28;20422;-66
2021/11/13 09:51:32;;;;;;;22.10;13.82;;;;;;;8.53;54.78;101118.13;4996623;28;20087;-68
2021/11/13 09:53:58;;;;;;;22.50;14.23;;;;;;;8.63;54.95;101110.03;5009077;28;20038;-67
2021/11/13 09:56:25;;;;;;;26.25;14.50;;;;;;;8.73;55.18;101120.19;5010594;28;20042;-66
2021/11/13 09:58:51;;;;;;;25.67;15.23;;;;;;;8.91;54.83;101118.81;5013013;28;20704;-66
2021/11/13 10:01:18;;;;;;;25.13;14.43;;;;;;;9.08;54.92;101120.94;5012204;28;20042;-66
2021/11/13 10:03:43;;;;;;;21.92;13.85;;;;;;;9.10;54.42;101120.91;5009962;28;20333;-66
2021/11/13 10:06:15;;;;;;;22.65;14.38;;;;;;;9.12;54.39;101124.28;4997362;28;20133;-66
2021/11/13 10:08:43;;;;;;;22.85;14.32;;;;;;;9.08;54.13;101127.91;5014674;28;20129;-69
2021/11/13 10:11:14;;;;;;;20.95;13.63;;;;;;;8.80;55.44;101139.13;4999327;28;20123;-66
2021/11/13 10:13:43;;;;;;;22.15;12.00;;;;;;;9.24;54.52;101136.97;5010304;28;20375;-68
2021/11/13 10:16:15;;;;;;;20.77;12.48;;;;;;;9.10;54.12;101128.72;4994055;28;20045;-67
2021/11/13 10:18:44;;;;;;;27.15;13.00;;;;;;;8.97;54.40;101139.50;5008844;28;20052;-68
2021/11/13 10:21:17;;;;;;;21.35;12.73;;;;;;;8.98;54.07;101132.53;4995128;28;20041;-68
2021/11/13 10:23:45;;;;;;;18.15;11.88;;;;;;;8.97;54.56;101136.88;4999959;28;20072;-69
2021/11/13 10:26:20;;;;;;;20.95;12.80;;;;;;;8.90;54.42;101135.38;5010715;28;20033;-68
2021/11/13 10:28:50;;;;;;;19.42;13.15;;;;;;;8.99;54.86;101139.47;4991190;28;20359;-68
2021/11/13 10:31:17;;;;;;;20.35;13.25;;;;;;;9.16;54.93;101150.25;5013604;28;20039;-66
2021/11/13 10:33:44;;;;;;;20.45;12.05;;;;;;;9.28;54.06;101145.56;5008481;28;20046;-67
2021/11/13 10:36:10;;;;;;;21.40;13.70;;;;;;;9.35;53.96;101142.72;5012208;28;20033;-67
2021/11/13 10:38:37;;;;;;;18.92;12.07;;;;;;;9.37;53.75;101143.53;5013872;28;20057;-66
2021/11/13 10:41:09;;;;;;;19.15;11.95;;;;;;;9.23;54.13;101140.50;5013453;28;20041;-67
2021/11/13 10:43:41;;;;;;;19.47;12.43;;;;;;;9.23;54.02;101134.41;5015526;28;20469;-67
2021/11/13 10:46:10;;;;;;;17.60;12.95;;;;;;;9.32;53.76;101139.34;5013198;28;20282;-67
2021/11/13 10:48:48;;;;;;;22.38;11.68;;;;;;;9.38;53.87;101142.63;5010786;28;20521;-67
2021/11/13 10:51:16;;;;;;;21.80;11.40;;;;;;;9.44;53.67;101145.97;5013395;28;20557;-67
2021/11/13 10:53:44;;;;;;;22.10;12.27;;;;;;;9.38;54.04;101145.22;5012237;28;20034;-67
2021/11/13 10:56:11;;;;;;;15.90;10.25;;;;;;;9.37;54.12;101142.69;5013987;28;20085;-68
2021/11/13 10:58:52;;;;;;;14.85;10.18;;;;;;;9.49;53.73;101151.88;5012768;28;20195;-67
2021/11/13 11:01:23;;;;;;;17.02;10.63;;;;;;;9.24;53.71;101147.41;5013354;28;20041;-67
2021/11/13 11:03:53;;;;;;;14.82;9.95;;;;;;;9.26;54.19;101148.22;4995032;28;20124;-70
2021/11/13 11:06:23;;;;;;;16.45;12.23;;;;;;;9.16;53.80;101144.16;4996625;28;20305;-67
2021/11/13 11:08:48;;;;;;;18.95;11.30;;;;;;;9.32;53.72;101140.22;4992577;28;20568;-67
2021/11/13 11:11:30;;;;;;;19.58;11.63;;;;;;;9.26;53.75;101143.00;5010408;28;20078;-67
2021/11/13 11:13:58;;;;;;;22.00;10.82;;;;;;;9.31;54.07;101145.47;4996980;28;20065;-67
2021/11/13 11:16:34;;;;;;;16.13;11.00;;;;;;;9.53;53.92;101148.28;5013796;28;20689;-67
2021/11/13 11:19:06;;;;;;;19.60;12.25;;;;;;;9.38;53.48;101155.66;5011303;28;22397;-67